メインページ
METAR-TAF:

METAR-TAF

空港 :

エカテリンブルク, ロシア

コルツォヴォ国際空港

緯度: 56-50N, 経度: 060-38E, 海抜: 237m

現時点の気象観測

当レポートは34分前の20:30(UTC)に作成
北/北東の風 4kt
気温 0°C
湿度 100%
気圧 986 hPa
視程: 1400m
高度500ftの千切れ雲あり
高度1100ftの曇り

METAR: USSS 292030Z 03002MPS 1700 1400W R08L/P2000N SN BKN005 OVC011 M00/M00 Q0986 R08L/290035 NOSIG RMK QFE720/0960

時間: 02:04 (21:04 UTC)

予報

当レポートは1時間4分前の20:00(UTC)に作成
予報は29日の 21時(UTC)から 30日の 21時(UTC)まで有効
北/北東の風 6kt
視程: 2000m
高度500ftの千切れ雲あり
高度1500ftの千切れ雲あり, 積乱雲.
にわか雪, 雨
29日の 21時(UTC)から 30日の 09時(UTC)まで一時的に
視程: 0600m
高度200ftの
激しいにわか雪
30日の 09時(UTC)から 30日の 10時(UTC)まで徐々に
視程: 3000m
高度1000ftの千切れ雲あり
高度1500ftの雲は散在している, 積乱雲.
弱いにわか雪

TAF: USSS 292000Z 2921/3021 03003MPS 2000 SHSNRA BKN005 BKN015CB TEMPO 2921/3009 0600 +SHSN VV002 BECMG 3009/3010 3000 -SHSN BKN010 SCT015CB

4,000以上の空港の気象観測と天気予報(METAR報とTAF報)

利用可能な観測所は地図上に黄色い丸と赤い丸で示す。

丸の上にカーソルを重ねると観測所名を参照できる。

次にクリックすると気象観測と天気予報を参照できる。

マップの切り替え:黒色「×」印の緑ボタンをクリックして拡大、「-」印の緑ボタンをクリックして縮小、緑色の三角印をクリックして隣りの地図に切り替え


METAR-TAF: